Search for airport 
image banner adimage banner ad
image banner ad

SVVZ - Metalgrafica

Located in Valencia, Venezuela

ICAO - , IATA -

Data provided by Airmate  

General information

Coordinates: N10°10'27" W67°56'42"
Elevation is feet MSL.
 
Rated:
View ratings: [VIEW]


View others Airports in Carabobo

Operational data

Open for public use
Current time UTC:
Current local time:
METAR: SVVA 221502Z AUTO 07004KT NCD 27/17 Q1017
TAF: TAF SVVA 221030Z 2212/2312 07002KT 9999 FEW016 TX33/2219Z TN23/2309Z TEMPO 2216/2220 14003KT 9999 FEW020TEMPO 2300/2304 20004KT 9999 FEW016
View NOTAMs / SUP AIP / TFR affecting this airport [VIEW]
Communications frequencies: [VIEW]

Runways:

Airport contact information

Address: Valencia Venezuela

Satellite view of SVVZ